Time;durP1;ratioP1;P1;durP2;ratioP2;P2;SDS_P1;SDS_P2;PMS_P1;PMS_P2;Temp;Humidity;BMP_temperature;BMP_pressure;BME280_temperature;BME280_humidity;BME280_pressure;Samples;Min_cycle;Max_cycle;Signal;HPM_P1;HPM_P2
2022/04/28 00:02:15;;;;;;;11.80;2.97;;;8.40;99.90;;;;;;5046146;28;20424;-79
2022/04/28 00:04:41;;;;;;;9.98;3.47;;;8.10;99.90;;;;;;5051964;28;20563;-79
2022/04/28 00:07:06;;;;;;;10.25;2.72;;;8.10;99.90;;;;;;5041309;28;20037;-79
2022/04/28 00:09:32;;;;;;;13.48;3.45;;;8.20;99.90;;;;;;5046481;28;20493;-79
2022/04/28 00:11:58;;;;;;;12.40;3.25;;;8.20;99.90;;;;;;5041481;28;20044;-79
2022/04/28 00:14:24;;;;;;;10.30;2.90;;;8.10;99.90;;;;;;5032658;28;20035;-79
2022/04/28 00:16:49;;;;;;;11.32;3.10;;;8.20;99.90;;;;;;5043879;28;20098;-79
2022/04/28 00:19:15;;;;;;;11.60;3.15;;;8.20;99.90;;;;;;5007361;28;20041;-79
2022/04/28 00:21:41;;;;;;;10.52;2.92;;;8.10;99.90;;;;;;5033310;28;20045;-79
2022/04/28 00:24:07;;;;;;;12.30;3.10;;;8.50;99.90;;;;;;5025103;28;20123;-79
2022/04/28 00:26:33;;;;;;;13.73;3.10;;;8.10;99.90;;;;;;5042195;28;20153;-79
2022/04/28 00:28:59;;;;;;;13.35;3.17;;;8.20;99.90;;;;;;5034059;28;20094;-79
2022/04/28 00:31:24;;;;;;;12.63;3.00;;;8.20;99.90;;;;;;5010984;28;20044;-79
2022/04/28 00:33:50;;;;;;;13.95;3.70;;;8.20;99.90;;;;;;5043859;28;20033;-79
2022/04/28 00:36:16;;;;;;;11.82;3.30;;;8.20;99.90;;;;;;5033911;28;20297;-79
2022/04/28 00:38:41;;;;;;;14.50;3.28;;;8.20;99.90;;;;;;5034368;28;20123;-79
2022/04/28 00:41:08;;;;;;;14.68;3.47;;;8.20;99.90;;;;;;5051630;28;20068;-79
2022/04/28 00:43:52;;;;;;;13.27;3.15;;;8.20;99.90;;;;;;5049864;28;20040;-78
2022/04/28 00:46:18;;;;;;;13.55;3.65;;;8.20;99.90;;;;;;5056561;28;20124;-79
2022/04/28 00:51:34;;;;;;;11.50;3.33;;;8.20;99.90;;;;;;5061616;28;20076;-79
2022/04/28 00:54:02;;;;;;;14.35;3.40;;;8.30;99.90;;;;;;5047377;28;20506;-79
2022/04/28 00:56:28;;;;;;;11.10;3.47;;;8.20;99.90;;;;;;5037568;28;20397;-79
2022/04/28 00:58:55;;;;;;;16.33;3.78;;;8.20;99.90;;;;;;5048247;28;20170;-79
2022/04/28 01:01:22;;;;;;;11.73;3.35;;;8.10;99.90;;;;;;5077430;28;20041;-79
2022/04/28 01:03:48;;;;;;;15.02;3.55;;;8.30;99.90;;;;;;5033712;28;20045;-78
2022/04/28 01:06:14;;;;;;;10.73;3.17;;;8.10;99.90;;;;;;5049892;28;20080;-79
2022/04/28 01:08:40;;;;;;;13.27;3.42;;;8.10;99.90;;;;;;5051322;28;20477;-79
2022/04/28 01:11:07;;;;;;;11.80;3.58;;;8.10;99.90;;;;;;5050904;28;20490;-79
2022/04/28 01:13:34;;;;;;;12.73;3.80;;;8.10;99.90;;;;;;5047453;28;20382;-79
2022/04/28 01:16:00;;;;;;;11.45;3.08;;;8.10;99.90;;;;;;5044565;28;20419;-79
2022/04/28 01:18:26;;;;;;;10.65;3.47;;;8.20;99.90;;;;;;5044120;28;20241;-79
2022/04/28 01:20:52;;;;;;;13.15;3.42;;;8.20;99.90;;;;;;5050597;28;20037;-79
2022/04/28 01:23:18;;;;;;;12.55;3.17;;;8.20;99.90;;;;;;5041044;28;20040;-79
2022/04/28 01:25:44;;;;;;;11.95;3.03;;;8.10;99.90;;;;;;5006822;28;20044;-79
2022/04/28 01:28:10;;;;;;;12.77;3.00;;;8.10;99.90;;;;;;5043837;28;20073;-78
2022/04/28 01:30:37;;;;;;;12.60;3.38;;;8.10;99.90;;;;;;5037942;28;20040;-79
2022/04/28 01:33:04;;;;;;;11.80;3.47;;;8.20;99.90;;;;;;5052321;28;20066;-79
2022/04/28 01:35:30;;;;;;;13.80;3.67;;;8.20;99.90;;;;;;5052364;28;20068;-79
2022/04/28 01:37:56;;;;;;;12.02;3.22;;;8.20;99.90;;;;;;5035450;28;20324;-78
2022/04/28 01:40:21;;;;;;;11.13;3.42;;;8.20;99.90;;;;;;5047091;28;20577;-79
2022/04/28 01:42:48;;;;;;;10.88;3.28;;;8.20;99.90;;;;;;5046197;28;20072;-79
2022/04/28 01:45:14;;;;;;;11.80;2.95;;;8.20;99.90;;;;;;5041111;28;20048;-79
2022/04/28 01:47:41;;;;;;;11.88;3.80;;;8.20;99.90;;;;;;5023273;28;20037;-79
2022/04/28 01:50:10;;;;;;;12.15;3.53;;;8.20;99.90;;;;;;5044410;28;20127;-79
2022/04/28 01:55:21;;;;;;;11.13;3.50;;;8.50;99.90;;;;;;5043986;28;20033;-79
2022/04/28 01:57:47;;;;;;;12.30;3.25;;;8.10;99.90;;;;;;5060741;28;20055;-79
2022/04/28 02:00:14;;;;;;;11.02;3.47;;;8.20;99.90;;;;;;5044254;28;20663;-79
2022/04/28 02:02:40;;;;;;;11.32;3.33;;;8.20;99.90;;;;;;5024427;28;20067;-79
2022/04/28 02:05:07;;;;;;;10.70;3.33;;;8.10;99.90;;;;;;5047411;28;20091;-79
2022/04/28 02:07:33;;;;;;;12.10;3.03;;;8.20;99.90;;;;;;5045059;28;20513;-79
2022/04/28 02:10:00;;;;;;;11.80;3.83;;;8.20;99.90;;;;;;5029170;28;20123;-79
2022/04/28 02:12:26;;;;;;;8.70;3.10;;;8.10;99.90;;;;;;5063049;28;20166;-79
2022/04/28 02:14:53;;;;;;;13.52;3.70;;;8.10;99.90;;;;;;5039581;28;20037;-79
2022/04/28 02:17:24;;;;;;;12.50;3.60;;;8.20;99.90;;;;;;5040644;28;20045;-79
2022/04/28 02:19:50;;;;;;;10.57;3.60;;;8.20;99.90;;;;;;5062048;28;20041;-79
2022/04/28 02:22:16;;;;;;;11.43;3.90;;;8.10;99.90;;;;;;5058930;28;20051;-78
2022/04/28 02:24:42;;;;;;;10.70;3.80;;;8.10;99.90;;;;;;5034411;28;20048;-79
2022/04/28 02:27:08;;;;;;;12.20;4.10;;;8.10;99.90;;;;;;5049624;28;20037;-79
2022/04/28 02:29:34;;;;;;;14.80;4.20;;;8.10;99.90;;;;;;5066492;28;20119;-79
2022/04/28 02:32:01;;;;;;;11.68;3.47;;;8.10;99.90;;;;;;5053963;28;20072;-79
2022/04/28 02:34:27;;;;;;;13.07;3.88;;;8.10;99.90;;;;;;5059874;28;20041;-79
2022/04/28 02:36:53;;;;;;;12.20;3.65;;;8.10;99.90;;;;;;5055949;28;20045;-79
2022/04/28 02:39:19;;;;;;;11.93;3.72;;;8.10;99.90;;;;;;5041042;28;20064;-79
2022/04/28 02:41:46;;;;;;;12.90;3.95;;;8.10;99.90;;;;;;5057910;28;20037;-79
2022/04/28 02:44:12;;;;;;;10.10;3.30;;;8.10;99.90;;;;;;5030772;28;20052;-79
2022/04/28 02:46:38;;;;;;;12.85;3.85;;;8.10;99.90;;;;;;5033058;28;20045;-79
2022/04/28 02:49:04;;;;;;;11.02;3.58;;;8.10;99.90;;;;;;5044391;28;20040;-79
2022/04/28 02:51:30;;;;;;;10.75;3.30;;;8.10;99.90;;;;;;5044904;28;20035;-79
2022/04/28 02:53:56;;;;;;;15.90;3.47;;;8.00;99.90;;;;;;5035323;28;20095;-79
2022/04/28 02:56:22;;;;;;;10.90;3.30;;;8.00;99.90;;;;;;5052682;28;20521;-79
2022/04/28 02:58:50;;;;;;;12.52;4.28;;;8.00;99.90;;;;;;5041099;28;20071;-79
2022/04/28 03:01:16;;;;;;;8.80;3.40;;;8.10;99.90;;;;;;5043269;28;20048;-79
2022/04/28 03:03:42;;;;;;;10.73;3.40;;;8.00;99.90;;;;;;5067457;28;20036;-79
2022/04/28 03:11:36;;;;;;;12.55;3.88;;;8.00;99.90;;;;;;5036896;28;20032;-79
2022/04/28 03:14:02;;;;;;;15.65;4.10;;;8.00;99.90;;;;;;5050105;28;20052;-79
2022/04/28 03:16:28;;;;;;;10.93;3.85;;;8.00;99.90;;;;;;5053792;28;20029;-78
2022/04/28 03:18:53;;;;;;;10.00;3.45;;;8.00;99.90;;;;;;5026922;28;20048;-79
2022/04/28 03:21:19;;;;;;;11.98;3.22;;;8.10;99.90;;;;;;5046207;28;20374;-79
2022/04/28 03:23:45;;;;;;;10.88;3.53;;;8.10;99.90;;;;;;5044518;28;20464;-79
2022/04/28 03:26:11;;;;;;;11.02;3.10;;;8.10;99.90;;;;;;5014257;28;20040;-79
2022/04/28 03:28:38;;;;;;;11.65;3.45;;;8.10;99.90;;;;;;5025330;28;20502;-79
2022/04/28 03:31:04;;;;;;;10.68;3.25;;;8.10;99.90;;;;;;5042213;28;20115;-79
2022/04/28 03:33:30;;;;;;;12.65;3.60;;;8.60;99.90;;;;;;5029395;28;20128;-79
2022/04/28 03:35:56;;;;;;;10.50;3.08;;;8.10;99.90;;;;;;5048260;28;20112;-79
2022/04/28 03:38:22;;;;;;;10.40;3.03;;;8.10;99.90;;;;;;5052017;28;20087;-79
2022/04/28 03:40:48;;;;;;;9.77;3.38;;;8.10;99.90;;;;;;5030805;28;21837;-79
2022/04/28 03:43:14;;;;;;;13.63;3.55;;;8.00;99.90;;;;;;5034277;28;20068;-79
2022/04/28 03:45:40;;;;;;;10.52;3.22;;;8.00;99.90;;;;;;5027905;28;20037;-79
2022/04/28 03:48:10;;;;;;;11.32;3.65;;;8.10;99.90;;;;;;5046395;28;20037;-79
2022/04/28 03:50:37;;;;;;;11.80;3.45;;;8.00;99.90;;;;;;5052445;28;20119;-79
2022/04/28 03:53:03;;;;;;;11.75;3.72;;;8.00;99.90;;;;;;5057834;28;20045;-79
2022/04/28 03:55:29;;;;;;;14.07;3.47;;;8.00;99.90;;;;;;5045674;28;20237;-79
2022/04/28 03:57:55;;;;;;;9.93;3.40;;;8.00;99.90;;;;;;5044261;28;20406;-79
2022/04/28 04:00:21;;;;;;;12.75;3.20;;;8.00;99.90;;;;;;5064136;28;20063;-79
2022/04/28 04:02:48;;;;;;;13.35;3.53;;;8.00;99.90;;;;;;5033152;28;20048;-79
2022/04/28 04:05:14;;;;;;;11.85;3.10;;;8.20;99.90;;;;;;5033437;28;20049;-79
2022/04/28 04:07:42;;;;;;;10.25;2.92;;;7.90;99.90;;;;;;5049017;28;20049;-79
2022/04/28 04:10:09;;;;;;;11.55;3.10;;;8.00;99.90;;;;;;5055323;28;20510;-79
2022/04/28 04:12:35;;;;;;;10.40;3.30;;;7.90;99.90;;;;;;5051614;28;20094;-79
2022/04/28 04:15:01;;;;;;;9.38;3.30;;;7.90;99.90;;;;;;5042522;28;20045;-79
2022/04/28 04:17:27;;;;;;;11.75;3.53;;;8.20;99.90;;;;;;5048313;28;20040;-79
2022/04/28 04:19:53;;;;;;;12.88;3.53;;;8.30;99.90;;;;;;5054134;28;20079;-79
2022/04/28 04:22:18;;;;;;;10.93;4.00;;;7.90;99.90;;;;;;5045968;28;20087;-78
2022/04/28 04:24:44;;;;;;;10.80;3.60;;;8.20;99.90;;;;;;5025512;28;20457;-79
2022/04/28 04:27:10;;;;;;;13.25;4.40;;;7.90;99.90;;;;;;5030847;28;20040;-79
2022/04/28 04:29:36;;;;;;;13.73;4.05;;;7.90;99.90;;;;;;5030726;28;20091;-79
2022/04/28 04:32:17;;;;;;;13.50;3.72;;;7.90;99.90;;;;;;5052444;28;20045;-79
2022/04/28 04:34:48;;;;;;;12.85;4.32;;;8.00;99.90;;;;;;5051748;28;20033;-79
2022/04/28 04:37:14;;;;;;;10.63;4.50;;;7.90;99.90;;;;;;5045585;28;20075;-79
2022/04/28 04:39:43;;;;;;;11.25;4.32;;;7.90;99.90;;;;;;5060290;28;20094;-79
2022/04/28 04:42:09;;;;;;;11.57;4.18;;;7.90;99.90;;;;;;5041916;28;20044;-79
2022/04/28 04:44:35;;;;;;;14.32;5.07;;;7.90;99.90;;;;;;5042913;28;20036;-79
2022/04/28 04:47:00;;;;;;;14.25;4.38;;;7.90;99.90;;;;;;5049914;28;20047;-79
2022/04/28 04:49:26;;;;;;;12.70;4.40;;;7.90;99.90;;;;;;5028967;28;20036;-79
2022/04/28 04:51:52;;;;;;;14.18;4.20;;;8.20;99.90;;;;;;5044443;28;20064;-79
2022/04/28 04:54:20;;;;;;;13.65;4.72;;;7.80;99.90;;;;;;5038479;28;20033;-79
2022/04/28 04:56:46;;;;;;;14.88;5.18;;;7.80;99.90;;;;;;5048230;28;20041;-79
2022/04/28 04:59:11;;;;;;;13.50;4.43;;;7.80;99.90;;;;;;5037798;28;20132;-79
2022/04/28 05:01:37;;;;;;;16.70;4.47;;;7.70;99.90;;;;;;5005997;28;20040;-79
2022/04/28 05:04:03;;;;;;;14.98;4.32;;;7.70;99.90;;;;;;5061574;28;20040;-79
2022/04/28 05:06:29;;;;;;;14.80;4.60;;;7.70;99.90;;;;;;5030826;28;20064;-79
2022/04/28 05:08:55;;;;;;;14.52;4.30;;;7.70;99.90;;;;;;5031210;28;20394;-79
2022/04/28 05:11:21;;;;;;;10.73;4.47;;;7.70;99.90;;;;;;5027770;28;20598;-79
2022/04/28 05:13:47;;;;;;;13.23;4.35;;;7.70;99.90;;;;;;5038181;28;20037;-79
2022/04/28 05:16:12;;;;;;;14.45;3.95;;;7.80;99.90;;;;;;5025858;28;20033;-79
2022/04/28 05:18:38;;;;;;;14.73;4.32;;;7.80;99.90;;;;;;5024758;28;20404;-79
2022/04/28 05:21:04;;;;;;;10.82;3.50;;;7.90;99.90;;;;;;5025128;28;20044;-79
2022/04/28 05:23:30;;;;;;;12.32;3.35;;;7.90;99.90;;;;;;5041166;28;20044;-78
2022/04/28 05:25:56;;;;;;;12.45;3.28;;;8.00;99.90;;;;;;5006337;28;20029;-80
2022/04/28 05:28:26;;;;;;;14.95;3.50;;;8.00;99.90;;;;;;5024507;28;20068;-80
2022/04/28 05:30:54;;;;;;;13.48;3.30;;;8.00;99.90;;;;;;5052393;28;20322;-80
2022/04/28 05:33:19;;;;;;;11.27;3.33;;;8.10;99.90;;;;;;5026423;28;20039;-80
2022/04/28 05:35:45;;;;;;;13.38;3.13;;;8.10;99.90;;;;;;5044601;28;20036;-79
2022/04/28 05:38:11;;;;;;;10.13;3.22;;;8.20;99.90;;;;;;5023292;28;20044;-80
2022/04/28 05:40:41;;;;;;;11.15;3.13;;;8.50;99.90;;;;;;5031913;28;20555;-80
2022/04/28 05:45:51;;;;;;;13.23;3.28;;;8.90;99.90;;;;;;5043556;28;20222;-79
2022/04/28 05:48:19;;;;;;;17.73;3.30;;;8.20;99.90;;;;;;5026557;28;20044;-79
2022/04/28 05:50:45;;;;;;;14.35;3.33;;;8.30;99.90;;;;;;5057462;28;20036;-80
2022/04/28 05:53:11;;;;;;;10.63;3.00;;;8.70;99.90;;;;;;5060686;28;20033;-80
2022/04/28 05:55:38;;;;;;;14.40;3.90;;;8.60;99.90;;;;;;5059233;28;20401;-80
2022/04/28 05:58:04;;;;;;;12.45;3.30;;;8.50;99.90;;;;;;5043820;28;20090;-80
2022/04/28 06:00:32;;;;;;;11.40;3.10;;;8.70;99.90;;;;;;5027409;28;20036;-79
2022/04/28 06:02:58;;;;;;;10.10;2.83;;;8.80;99.90;;;;;;5031736;28;20052;-80
2022/04/28 06:05:25;;;;;;;9.02;2.90;;;8.90;99.90;;;;;;5061192;28;20053;-80
2022/04/28 06:07:51;;;;;;;13.77;3.35;;;8.90;99.90;;;;;;5046178;28;20040;-80
2022/04/28 06:10:17;;;;;;;9.85;2.88;;;9.00;99.90;;;;;;5036044;28;20029;-80
2022/04/28 06:12:43;;;;;;;10.07;2.78;;;9.90;99.90;;;;;;5053869;28;20033;-79
2022/04/28 06:15:11;;;;;;;13.27;3.22;;;9.10;99.90;;;;;;5059041;28;20063;-79
2022/04/28 06:17:37;;;;;;;9.90;2.78;;;9.20;99.90;;;;;;5064062;28;20048;-79
2022/04/28 06:20:04;;;;;;;11.50;2.80;;;9.20;99.90;;;;;;5042201;28;20609;-77
2022/04/28 06:22:29;;;;;;;10.15;2.90;;;9.20;99.90;;;;;;5045715;28;20040;-78
2022/04/28 06:24:56;;;;;;;10.55;2.85;;;9.20;99.90;;;;;;5032697;28;20147;-80
2022/04/28 06:27:22;;;;;;;11.65;3.25;;;9.20;99.90;;;;;;5047913;28;20068;-80
2022/04/28 06:29:49;;;;;;;11.57;2.85;;;9.30;99.90;;;;;;5046175;28;20033;-80
2022/04/28 06:32:21;;;;;;;12.15;2.78;;;9.30;99.90;;;;;;5058510;28;20044;-80
2022/04/28 06:34:47;;;;;;;12.52;2.90;;;9.50;99.90;;;;;;5048654;28;20404;-80
2022/04/28 06:37:16;;;;;;;12.55;2.92;;;9.60;99.90;;;;;;5053803;28;20119;-79
2022/04/28 06:39:42;;;;;;;11.32;2.63;;;9.80;99.90;;;;;;5048123;28;20066;-80
2022/04/28 06:42:08;;;;;;;10.18;2.67;;;9.90;99.90;;;;;;5056871;28;20083;-79
2022/04/28 06:44:35;;;;;;;13.23;2.70;;;10.00;99.90;;;;;;5044242;28;20071;-80
2022/04/28 06:47:02;;;;;;;10.57;2.85;;;10.10;99.90;;;;;;5044660;28;20565;-79
2022/04/28 06:49:27;;;;;;;12.55;2.65;;;10.20;99.90;;;;;;5058511;28;20086;-81
2022/04/28 06:51:53;;;;;;;12.43;2.63;;;10.20;99.90;;;;;;5025701;28;20062;-80
2022/04/28 06:54:18;;;;;;;11.07;2.50;;;10.30;99.90;;;;;;5032380;28;20043;-80
2022/04/28 06:56:45;;;;;;;9.75;2.58;;;10.40;99.90;;;;;;5040992;28;20097;-79
2022/04/28 06:59:11;;;;;;;10.70;2.85;;;10.50;99.90;;;;;;5040036;28;20036;-80
2022/04/28 07:01:37;;;;;;;12.00;2.67;;;10.70;99.90;;;;;;5032954;28;20048;-80
2022/04/28 07:04:02;;;;;;;8.65;2.13;;;10.80;99.90;;;;;;5034467;28;20444;-81
2022/04/28 07:06:28;;;;;;;11.27;2.45;;;10.90;99.90;;;;;;5043358;28;20052;-81
2022/04/28 07:08:54;;;;;;;10.32;2.40;;;11.00;99.90;;;;;;5049065;28;20075;-80
2022/04/28 07:11:20;;;;;;;13.80;2.42;;;11.00;99.90;;;;;;5038502;28;20509;-81
2022/04/28 07:13:45;;;;;;;10.25;2.13;;;11.10;99.90;;;;;;5036074;28;20056;-81
2022/04/28 07:16:11;;;;;;;9.73;2.40;;;11.20;99.90;;;;;;5034487;28;20039;-81
2022/04/28 07:18:37;;;;;;;11.68;2.15;;;11.30;99.90;;;;;;5032312;28;20044;-81
2022/04/28 07:21:03;;;;;;;8.55;2.00;;;11.50;99.90;;;;;;5004632;28;20087;-80
2022/04/28 07:23:30;;;;;;;12.93;2.83;;;11.60;99.90;;;;;;5056351;28;20071;-80
2022/04/28 07:25:55;;;;;;;12.30;2.30;;;11.50;99.90;;;;;;5056181;28;20383;-81
2022/04/28 07:28:21;;;;;;;12.30;2.65;;;11.50;99.90;;;;;;5043254;28;20044;-81
2022/04/28 07:30:47;;;;;;;12.65;2.75;;;11.30;99.90;;;;;;5028128;28;20047;-81
2022/04/28 07:33:12;;;;;;;19.83;2.75;;;11.20;99.90;;;;;;5044844;28;20036;-80
2022/04/28 07:35:38;;;;;;;15.88;3.40;;;11.20;99.90;;;;;;5051155;28;20133;-81
2022/04/28 07:38:05;;;;;;;11.32;2.85;;;11.40;99.90;;;;;;5058198;28;20119;-81
2022/04/28 07:40:31;;;;;;;9.45;2.40;;;11.30;99.90;;;;;;5023770;28;20044;-80
2022/04/28 07:42:57;;;;;;;13.35;2.75;;;11.30;99.90;;;;;;5049029;28;20068;-80
2022/04/28 07:45:23;;;;;;;9.05;2.10;;;11.50;99.90;;;;;;5048878;28;20041;-79
2022/04/28 07:47:50;;;;;;;10.48;2.40;;;11.50;99.90;;;;;;5056830;28;20062;-80
2022/04/28 07:50:16;;;;;;;12.77;2.47;;;11.50;99.90;;;;;;5035361;28;20040;-81
2022/04/28 07:52:43;;;;;;;11.07;2.05;;;11.60;99.90;;;;;;5063199;28;20527;-80
2022/04/28 07:55:10;;;;;;;9.90;2.10;;;11.50;99.90;;;;;;5057654;28;20658;-80
2022/04/28 07:57:36;;;;;;;7.97;2.10;;;11.50;99.90;;;;;;5037956;28;20037;-80
2022/04/28 08:00:05;;;;;;;12.77;2.38;;;11.40;99.90;;;;;;5030852;28;20229;-80
2022/04/28 08:02:32;;;;;;;9.27;2.15;;;11.30;99.90;;;;;;5054309;28;20570;-80
2022/04/28 08:04:58;;;;;;;14.13;2.53;;;11.20;99.90;;;;;;5055431;28;20044;-80
2022/04/28 08:07:24;;;;;;;9.98;2.10;;;11.20;99.90;;;;;;5042931;28;20044;-81
2022/04/28 08:09:50;;;;;;;10.98;2.20;;;11.00;99.90;;;;;;5041191;28;20044;-80
2022/04/28 08:12:16;;;;;;;13.70;2.65;;;11.00;99.90;;;;;;5039784;28;20033;-80
2022/04/28 08:14:42;;;;;;;12.57;2.95;;;10.90;99.90;;;;;;5043962;28;20033;-81
2022/04/28 08:17:07;;;;;;;13.93;2.50;;;10.80;99.90;;;;;;5059422;28;20049;-80
2022/04/28 08:19:34;;;;;;;8.70;2.10;;;10.90;99.90;;;;;;5043264;28;20051;-80
2022/04/28 08:22:00;;;;;;;8.43;2.22;;;11.00;99.90;;;;;;5038408;28;20079;-82
2022/04/28 08:24:26;;;;;;;14.00;2.38;;;11.00;99.90;;;;;;5024197;28;20041;-80
2022/04/28 08:26:54;;;;;;;13.45;2.65;;;11.00;99.90;;;;;;5059770;28;20041;-81
2022/04/28 08:29:21;;;;;;;10.35;2.90;;;11.00;99.90;;;;;;5042316;28;20036;-80
2022/04/28 08:31:47;;;;;;;9.75;2.42;;;11.20;99.90;;;;;;5041108;28;20413;-80
2022/04/28 08:34:14;;;;;;;9.63;2.70;;;11.20;99.90;;;;;;5039231;28;20067;-80
2022/04/28 08:36:40;;;;;;;8.82;2.22;;;11.10;99.90;;;;;;5058004;28;20106;-81
2022/04/28 08:39:06;;;;;;;11.73;2.90;;;11.00;99.90;;;;;;5044143;28;20047;-81
2022/04/28 08:41:34;;;;;;;11.45;3.22;;;11.00;99.90;;;;;;5060678;28;20044;-81
2022/04/28 08:44:02;;;;;;;12.95;3.30;;;11.10;99.90;;;;;;5042736;28;20068;-81
2022/04/28 08:49:33;;;;;;;12.15;3.42;;;11.20;99.90;;;;;;5020169;28;20105;-80
2022/04/28 08:51:59;;;;;;;13.20;3.78;;;11.40;99.90;;;;;;5007997;28;20037;-81
2022/04/28 08:54:27;;;;;;;13.55;3.80;;;11.40;99.90;;;;;;4990199;28;20048;-80
2022/04/28 08:56:54;;;;;;;12.70;3.00;;;11.50;99.90;;;;;;5040251;28;20048;-80
2022/04/28 08:59:20;;;;;;;13.82;3.28;;;11.80;99.90;;;;;;5037008;28;20041;-79
2022/04/28 09:01:46;;;;;;;13.20;3.30;;;12.20;99.90;;;;;;5040222;28;20182;-81
2022/04/28 09:04:12;;;;;;;10.68;3.00;;;12.30;99.90;;;;;;5054563;28;20090;-79
2022/04/28 09:06:41;;;;;;;11.55;3.55;;;12.40;99.90;;;;;;5027294;28;20062;-79
2022/04/28 09:09:18;;;;;;;13.63;3.60;;;12.50;99.90;;;;;;5056458;28;20036;-80
2022/04/28 09:11:45;;;;;;;14.63;3.15;;;12.30;99.90;;;;;;5062720;28;20068;-80
2022/04/28 09:14:18;;;;;;;15.25;3.42;;;12.10;99.90;;;;;;5057297;28;20079;-79
2022/04/28 09:16:48;;;;;;;11.30;3.15;;;12.10;99.90;;;;;;5045498;28;20037;-79
2022/04/28 09:19:22;;;;;;;13.23;3.65;;;12.00;99.90;;;;;;5054403;28;20497;-79
2022/04/28 09:21:47;;;;;;;12.75;3.03;;;12.00;99.90;;;;;;5045505;28;20061;-81
2022/04/28 09:24:14;;;;;;;11.68;2.88;;;11.90;99.90;;;;;;5037362;28;20067;-80
2022/04/28 09:26:41;;;;;;;11.57;2.80;;;11.80;99.90;;;;;;5038878;28;20063;-80
2022/04/28 09:29:14;;;;;;;11.55;2.70;;;11.90;99.90;;;;;;5038137;28;20128;-81
2022/04/28 09:31:41;;;;;;;16.25;3.30;;;11.80;99.90;;;;;;5056853;28;20037;-81
2022/04/28 09:34:09;;;;;;;12.23;2.88;;;11.80;99.90;;;;;;5038521;28;20044;-81
2022/04/28 09:36:37;;;;;;;12.85;2.67;;;12.10;99.90;;;;;;5047710;28;20378;-81
2022/04/28 09:39:05;;;;;;;9.25;2.63;;;11.90;99.90;;;;;;5027296;28;20044;-82
2022/04/28 09:44:16;;;;;;;11.32;2.83;;;12.00;99.90;;;;;;5062329;28;20554;-80
2022/04/28 09:46:46;;;;;;;12.30;2.58;;;12.10;99.90;;;;;;5036917;28;20041;-80
2022/04/28 09:49:14;;;;;;;8.75;2.42;;;12.00;99.90;;;;;;5029021;28;20044;-81
2022/04/28 09:51:41;;;;;;;10.45;2.88;;;11.90;99.90;;;;;;5056128;28;20073;-81
2022/04/28 09:54:09;;;;;;;9.02;2.63;;;11.90;99.90;;;;;;5043868;28;20109;-81
2022/04/28 09:56:40;;;;;;;13.57;2.83;;;11.90;99.90;;;;;;5053056;28;20041;-81
2022/04/28 09:59:09;;;;;;;10.70;2.50;;;11.90;99.90;;;;;;5040921;28;20072;-81
2022/04/28 10:01:37;;;;;;;11.18;2.88;;;12.00;99.90;;;;;;5040006;28;20115;-81
2022/04/28 10:04:07;;;;;;;10.52;2.80;;;12.10;99.90;;;;;;5055073;28;20081;-81
2022/04/28 10:06:36;;;;;;;11.55;2.50;;;12.00;99.90;;;;;;5053174;28;20045;-81
2022/04/28 10:09:15;;;;;;;11.50;2.40;;;12.10;99.90;;;;;;5051293;28;20045;-81
2022/04/28 10:11:42;;;;;;;12.27;2.45;;;12.20;99.90;;;;;;5028463;28;20582;-80
2022/04/28 10:14:10;;;;;;;10.90;2.63;;;12.30;99.90;;;;;;5039576;28;20076;-82
2022/04/28 10:16:38;;;;;;;9.57;2.60;;;12.60;99.90;;;;;;5039987;28;20039;-81
2022/04/28 10:19:14;;;;;;;9.43;2.72;;;12.80;99.90;;;;;;5053470;28;20048;-81
2022/04/28 10:21:52;;;;;;;11.10;2.58;;;12.60;99.90;;;;;;5054634;28;20123;-81
2022/04/28 10:33:01;;;;;;;11.82;2.58;;;12.40;99.90;;;;;;5059104;28;20529;-81
2022/04/28 10:35:38;;;;;;;14.43;3.30;;;12.40;99.90;;;;;;5059563;28;20081;-81
2022/04/28 10:38:19;;;;;;;10.20;2.70;;;12.30;99.90;;;;;;5053774;28;20085;-81
2022/04/28 10:41:00;;;;;;;11.73;2.80;;;12.20;99.90;;;;;;5038391;28;20122;-81
2022/04/28 10:43:25;;;;;;;11.63;2.45;;;12.30;99.90;;;;;;5051940;28;20037;-81
2022/04/28 10:45:54;;;;;;;11.13;2.88;;;12.40;99.90;;;;;;5043733;28;20041;-81
2022/04/28 10:48:41;;;;;;;11.95;3.05;;;12.40;99.90;;;;;;5041882;28;20094;-81
2022/04/28 10:51:15;;;;;;;12.52;2.70;;;12.40;99.90;;;;;;5043871;28;20346;-82
2022/04/28 10:53:59;;;;;;;14.15;2.80;;;12.50;99.90;;;;;;5055264;28;20046;-81
2022/04/28 10:56:54;;;;;;;12.63;2.70;;;12.60;99.90;;;;;;5057067;28;20036;-80
2022/04/28 10:59:34;;;;;;;10.45;2.88;;;12.80;99.90;;;;;;5059783;28;20048;-80
2022/04/28 11:02:15;;;;;;;16.73;3.08;;;12.80;99.90;;;;;;5046597;28;20040;-80
2022/04/28 11:04:42;;;;;;;12.50;2.55;;;12.90;99.90;;;;;;5050865;28;20410;-80
2022/04/28 11:07:11;;;;;;;12.75;2.90;;;12.70;99.90;;;;;;5056639;28;20132;-80
2022/04/28 11:09:44;;;;;;;12.38;2.80;;;12.80;99.90;;;;;;5058326;28;20121;-80
2022/04/28 11:12:19;;;;;;;12.20;2.60;;;12.90;99.90;;;;;;5061638;28;20115;-81
2022/04/28 11:14:48;;;;;;;11.13;3.03;;;12.80;99.90;;;;;;5043477;28;20044;-80
2022/04/28 11:17:15;;;;;;;9.85;2.72;;;12.80;99.90;;;;;;5034855;28;20079;-80
2022/04/28 11:19:43;;;;;;;13.57;2.55;;;12.70;99.90;;;;;;5041751;28;20036;-80
2022/04/28 11:22:11;;;;;;;14.55;2.75;;;12.60;99.90;;;;;;5047764;28;20047;-80
2022/04/28 11:24:47;;;;;;;13.02;2.78;;;12.60;99.90;;;;;;5039812;28;20047;-79
2022/04/28 11:27:20;;;;;;;13.32;2.75;;;13.00;99.90;;;;;;5053924;28;20043;-79
2022/04/28 11:29:46;;;;;;;;;;;13.30;99.90;;;;;;5048289;28;20037;-81
2022/04/28 11:32:15;;;;;;;11.02;2.63;;;13.30;99.90;;;;;;5029416;28;20097;-81
2022/04/28 11:34:43;;;;;;;10.23;2.47;;;13.20;99.90;;;;;;5039855;28;20040;-81
2022/04/28 11:37:15;;;;;;;12.15;2.85;;;13.10;99.90;;;;;;5033140;28;20456;-81
2022/04/28 11:39:49;;;;;;;12.75;3.10;;;13.10;99.90;;;;;;5051980;28;20032;-81
2022/04/28 11:42:16;;;;;;;11.57;2.50;;;13.00;99.90;;;;;;5043338;28;20044;-79
2022/04/28 11:44:53;;;;;;;13.25;2.83;;;13.00;99.90;;;;;;5026680;28;20056;-81
2022/04/28 11:47:20;;;;;;;15.45;2.97;;;12.90;99.90;;;;;;5054940;28;20052;-81
2022/04/28 11:49:49;;;;;;;11.20;2.58;;;12.90;99.90;;;;;;5042592;28;20033;-80
2022/04/28 11:52:29;;;;;;;12.43;3.05;;;12.90;99.90;;;;;;5048563;28;20097;-82
2022/04/28 11:55:01;;;;;;;14.60;3.00;;;12.80;99.90;;;;;;5020460;28;20546;-80
2022/04/28 11:57:27;;;;;;;13.35;2.97;;;12.70;99.90;;;;;;5058730;28;20049;-81
2022/04/28 11:59:54;;;;;;;13.32;2.70;;;12.50;99.90;;;;;;5043004;28;20080;-80
2022/04/28 12:02:32;;;;;;;12.18;3.13;;;12.50;99.90;;;;;;5041012;28;20055;-81
2022/04/28 12:05:00;;;;;;;10.63;2.67;;;12.50;99.90;;;;;;5039514;28;20063;-80
2022/04/28 12:07:34;;;;;;;10.30;2.75;;;12.50;99.90;;;;;;5041459;28;20037;-79
2022/04/28 12:15:33;;;;;;;12.07;2.63;;;12.90;99.90;;;;;;5043619;28;20093;-80
2022/04/28 12:21:01;;;;;;;14.20;3.05;;;12.90;99.90;;;;;;5075045;28;20048;-82
2022/04/28 12:23:31;;;;;;;12.70;2.70;;;12.80;99.90;;;;;;5038659;28;20044;-81
2022/04/28 12:26:06;;;;;;;13.25;2.60;;;12.80;99.90;;;;;;5058118;28;20044;-79
2022/04/28 12:28:32;;;;;;;16.58;2.92;;;12.80;99.90;;;;;;5065319;28;20048;-80
2022/04/28 12:30:59;;;;;;;12.23;2.80;;;12.70;99.90;;;;;;5060761;28;20076;-81
2022/04/28 12:33:29;;;;;;;11.70;2.63;;;12.80;99.90;;;;;;5055619;28;20032;-81
2022/04/28 12:35:59;;;;;;;14.10;3.08;;;12.90;99.90;;;;;;5039887;28;20045;-80
2022/04/28 12:38:28;;;;;;;12.80;2.58;;;12.80;99.90;;;;;;5040287;28;20120;-81
2022/04/28 12:40:55;;;;;;;13.07;2.78;;;12.90;99.90;;;;;;5044535;28;20037;-80
2022/04/28 12:43:44;;;;;;;12.63;2.53;;;12.80;99.90;;;;;;5038085;28;20036;-81
2022/04/28 12:46:10;;;;;;;8.85;2.60;;;12.70;99.90;;;;;;5050944;28;20048;-81
2022/04/28 12:48:37;;;;;;;10.88;2.35;;;12.70;99.90;;;;;;5040756;28;20075;-80
2022/04/28 12:51:10;;;;;;;11.70;2.75;;;12.60;99.90;;;;;;5037502;28;20032;-81
2022/04/28 12:53:37;;;;;;;13.68;3.05;;;12.70;99.90;;;;;;5063253;28;20131;-81
2022/04/28 12:56:08;;;;;;;11.20;2.78;;;12.70;99.90;;;;;;5037380;28;20132;-80
2022/04/28 12:58:42;;;;;;;10.50;2.58;;;12.80;99.90;;;;;;5044363;28;20068;-80
2022/04/28 13:01:12;;;;;;;12.23;2.70;;;12.90;99.90;;;;;;5052182;28;20072;-82
2022/04/28 13:03:39;;;;;;;13.40;3.25;;;13.10;99.90;;;;;;5028267;28;20102;-80
2022/04/28 13:06:04;;;;;;;11.65;2.80;;;13.10;99.90;;;;;;5038390;28;20056;-81
2022/04/28 13:08:31;;;;;;;11.27;2.20;;;13.20;99.90;;;;;;5039136;28;20110;-80
2022/04/28 13:10:57;;;;;;;15.30;3.10;;;13.00;99.90;;;;;;5039870;28;20039;-81
2022/04/28 13:13:23;;;;;;;12.80;2.65;;;13.10;99.90;;;;;;5034545;28;20224;-81
2022/04/28 13:15:48;;;;;;;13.05;2.72;;;13.40;99.90;;;;;;5023879;28;20037;-81
2022/04/28 13:18:14;;;;;;;13.82;2.47;;;13.20;99.90;;;;;;5030756;28;20041;-81
2022/04/28 13:20:40;;;;;;;10.02;2.42;;;12.90;99.90;;;;;;5027346;28;20290;-80
2022/04/28 13:23:06;;;;;;;11.02;2.72;;;13.10;99.90;;;;;;5041177;28;20463;-81